createdAt,value
2016-12-25T00:00:36.109Z,25.98
2016-12-25T00:01:35.263Z,25.89
2016-12-25T00:02:35.522Z,25.89
2016-12-25T00:03:35.228Z,25.89
2016-12-25T00:04:34.971Z,25.98
2016-12-25T00:05:35.293Z,25.89
2016-12-25T00:06:35.244Z,25.89
2016-12-25T00:07:34.936Z,26.08
2016-12-25T00:08:34.945Z,25.89
2016-12-25T00:09:34.955Z,25.98
2016-12-25T00:10:35.269Z,26.08
2016-12-25T00:11:35.081Z,26.08
2016-12-25T00:12:35.281Z,25.98
2016-12-25T00:13:35.288Z,25.79
2016-12-25T00:14:35.300Z,25.98
2016-12-25T00:15:36.349Z,25.98
2016-12-25T00:16:35.044Z,25.89
2016-12-25T00:17:35.615Z,25.89
2016-12-25T00:18:35.370Z,25.98
2016-12-25T00:19:35.327Z,26.08
2016-12-25T00:20:35.019Z,25.98
2016-12-25T00:21:35.024Z,25.98
2016-12-25T00:22:35.394Z,25.89
2016-12-25T00:23:35.040Z,25.98
2016-12-25T00:24:35.044Z,25.98
2016-12-25T00:25:35.461Z,25.98
2016-12-25T00:26:36.317Z,25.98
2016-12-25T00:27:35.063Z,25.98
2016-12-25T00:28:35.066Z,25.98
2016-12-25T00:29:35.388Z,25.89
2016-12-25T00:30:35.394Z,25.89
2016-12-25T00:31:35.402Z,25.89
2016-12-25T00:32:35.094Z,25.98
2016-12-25T00:33:35.465Z,25.89
2016-12-25T00:34:35.418Z,25.98
2016-12-25T00:35:35.430Z,25.98
2016-12-25T00:36:35.118Z,25.89
2016-12-25T00:37:36.240Z,25.98
2016-12-25T00:38:35.448Z,25.98
2016-12-25T00:39:35.139Z,26.08
2016-12-25T00:40:35.457Z,25.89
2016-12-25T00:41:35.153Z,25.98
2016-12-25T00:42:35.473Z,26.18
2016-12-25T00:43:35.213Z,25.98
2016-12-25T00:44:35.484Z,25.98
2016-12-25T00:45:35.178Z,25.98
2016-12-25T00:46:35.496Z,26.08
2016-12-25T00:47:35.554Z,25.98
2016-12-25T00:48:36.463Z,25.89
2016-12-25T00:49:35.567Z,25.89
2016-12-25T00:50:35.210Z,25.89
2016-12-25T00:51:35.835Z,25.89
2016-12-25T00:52:35.280Z,25.89
2016-12-25T00:53:35.543Z,25.98
2016-12-25T00:54:35.550Z,25.89
2016-12-25T00:55:35.241Z,25.98
2016-12-25T00:56:35.612Z,25.98
2016-12-25T00:57:35.566Z,25.89
2016-12-25T00:58:35.575Z,26.08
2016-12-25T00:59:36.483Z,25.98
2016-12-25T01:00:35.588Z,25.89
2016-12-25T01:01:35.429Z,25.89
2016-12-25T01:02:35.600Z,25.89
2016-12-25T01:03:35.292Z,25.98
2016-12-25T01:04:35.672Z,25.98
2016-12-25T01:05:35.617Z,25.98
2016-12-25T01:06:35.364Z,25.98
2016-12-25T01:07:35.317Z,25.98
2016-12-25T01:08:35.639Z,25.98
2016-12-25T01:09:35.643Z,25.98
2016-12-25T01:10:36.530Z,25.89
2016-12-25T01:11:35.708Z,25.89
2016-12-25T01:12:35.353Z,25.98
2016-12-25T01:13:35.358Z,25.98
2016-12-25T01:14:35.371Z,25.98
2016-12-25T01:15:35.370Z,25.98
2016-12-25T01:16:35.752Z,26.08
2016-12-25T01:17:35.701Z,25.98
2016-12-25T01:18:35.391Z,25.98
2016-12-25T01:19:35.445Z,25.89
2016-12-25T01:20:35.766Z,25.98
2016-12-25T01:21:36.411Z,25.98
2016-12-25T01:22:35.778Z,25.89
2016-12-25T01:23:35.622Z,25.89
2016-12-25T01:24:35.744Z,25.98
2016-12-25T01:25:35.736Z,25.98
2016-12-25T01:26:35.442Z,25.98
2016-12-25T01:27:35.443Z,25.89
2016-12-25T01:28:35.504Z,25.98
2016-12-25T01:29:35.772Z,25.98
2016-12-25T01:30:35.465Z,25.98
2016-12-25T01:31:35.786Z,25.98
2016-12-25T01:32:36.572Z,25.98
2016-12-25T01:33:35.486Z,25.98
2016-12-25T01:34:35.490Z,25.89
2016-12-25T01:35:35.894Z,26.08
2016-12-25T01:36:35.818Z,25.98
2016-12-25T01:37:35.511Z,25.89
2016-12-25T01:38:35.931Z,26.08
2016-12-25T01:39:35.838Z,25.98
2016-12-25T01:40:35.580Z,25.89
2016-12-25T01:41:35.898Z,25.89
2016-12-25T01:42:35.858Z,25.89
2016-12-25T01:43:36.100Z,25.89
2016-12-25T01:44:35.558Z,25.98
2016-12-25T01:45:35.615Z,26.08
2016-12-25T01:46:35.619Z,25.98
2016-12-25T01:47:36.640Z,25.98
2016-12-25T01:48:35.896Z,26.08
2016-12-25T01:49:35.902Z,25.89
2016-12-25T01:50:35.596Z,25.98
2016-12-25T01:51:35.916Z,25.98
2016-12-25T01:52:35.920Z,25.89
2016-12-25T01:53:35.978Z,25.98
2016-12-25T01:54:35.672Z,25.89
2016-12-25T01:55:35.940Z,25.98
2016-12-25T01:56:35.634Z,25.98
2016-12-25T01:57:35.643Z,25.89
2016-12-25T01:58:36.447Z,25.89
2016-12-25T01:59:35.651Z,26.08
2016-12-25T02:00:35.972Z,25.89
2016-12-25T02:01:35.665Z,25.89
2016-12-25T02:02:35.675Z,26.08
2016-12-25T02:03:36.038Z,26.08
2016-12-25T02:04:35.998Z,25.98
2016-12-25T02:05:35.690Z,26.08
2016-12-25T02:06:35.696Z,26.08
2016-12-25T02:07:36.065Z,25.98
2016-12-25T02:08:35.761Z,26.18
2016-12-25T02:09:36.870Z,26.08
2016-12-25T02:10:35.721Z,25.89
2016-12-25T02:11:36.043Z,25.98
2016-12-25T02:12:36.101Z,26.08
2016-12-25T02:13:35.793Z,26.08
2016-12-25T02:14:36.108Z,25.98
2016-12-25T02:15:35.803Z,26.18
2016-12-25T02:16:36.127Z,26.08
2016-12-25T02:17:35.820Z,26.08
2016-12-25T02:18:35.774Z,25.98
2016-12-25T02:19:36.091Z,25.98
2016-12-25T02:20:36.187Z,25.98
2016-12-25T02:21:36.156Z,26.18
2016-12-25T02:22:35.798Z,26.08
2016-12-25T02:23:36.121Z,25.89
2016-12-25T02:24:35.811Z,26.08
2016-12-25T02:25:36.154Z,25.98
2016-12-25T02:26:35.825Z,26.18
2016-12-25T02:27:35.831Z,26.18
2016-12-25T02:28:36.153Z,26.08
2016-12-25T02:29:36.158Z,26.08
2016-12-25T02:30:36.165Z,26.18
2016-12-25T02:31:36.707Z,26.18
2016-12-25T02:32:35.964Z,26.28
2016-12-25T02:33:35.918Z,26.28
2016-12-25T02:34:35.876Z,26.18
2016-12-25T02:35:36.294Z,26.18
2016-12-25T02:36:36.201Z,26.08
2016-12-25T02:37:36.206Z,26.18
2016-12-25T02:38:36.365Z,26.18
2016-12-25T02:39:35.907Z,26.28
2016-12-25T02:40:36.276Z,26.18
2016-12-25T02:41:36.282Z,26.28
2016-12-25T02:42:36.126Z,26.28
2016-12-25T02:43:36.243Z,26.18
2016-12-25T02:44:37.224Z,26.28
2016-12-25T02:45:35.946Z,26.08
2016-12-25T02:46:36.266Z,26.08
2016-12-25T02:47:36.308Z,26.08
2016-12-25T02:48:36.277Z,26.28
2016-12-25T02:49:35.975Z,26.18
2016-12-25T02:50:36.025Z,26.28
2016-12-25T02:51:36.348Z,26.18
2016-12-25T02:52:36.091Z,26.37
2016-12-25T02:53:36.310Z,26.37
2016-12-25T02:54:36.313Z,25.98
2016-12-25T02:55:36.059Z,26.66
2016-12-25T02:56:36.016Z,26.66
2016-12-25T02:57:36.072Z,26.46
2016-12-25T02:58:36.026Z,26.37
2016-12-25T02:59:36.397Z,26.28
2016-12-25T03:00:36.040Z,26.66
2016-12-25T03:01:36.046Z,26.66
2016-12-25T03:02:36.415Z,26.37
2016-12-25T03:03:36.373Z,26.28
2016-12-25T03:04:36.431Z,26.37
2016-12-25T03:05:36.070Z,26.66
2016-12-25T03:06:37.691Z,26.66
2016-12-25T03:07:36.397Z,26.55
2016-12-25T03:08:36.405Z,26.56
2016-12-25T03:09:36.145Z,26.76
2016-12-25T03:10:36.414Z,26.66
2016-12-25T03:11:36.161Z,26.66
2016-12-25T03:12:36.430Z,26.37
2016-12-25T03:13:36.122Z,26.46
2016-12-25T03:14:36.444Z,26.66
2016-12-25T03:15:36.448Z,26.37
2016-12-25T03:16:36.142Z,26.37
2016-12-25T03:17:36.916Z,26.37
2016-12-25T03:18:36.467Z,26.46
2016-12-25T03:19:36.478Z,26.37
2016-12-25T03:20:36.483Z,26.37
2016-12-25T03:21:36.172Z,26.56
2016-12-25T03:22:36.545Z,26.18
2016-12-25T03:23:36.548Z,26.46
2016-12-25T03:24:36.606Z,26.46
2016-12-25T03:25:36.511Z,26.17
2016-12-25T03:26:36.541Z,26.46
2016-12-25T03:27:36.211Z,26.46
2016-12-25T03:28:36.568Z,26.56
2016-12-25T03:29:36.537Z,26.28
2016-12-25T03:30:36.230Z,26.37
2016-12-25T03:31:36.326Z,26.45
2016-12-25T03:32:36.243Z,26.45
2016-12-25T03:33:36.577Z,26.46
2016-12-25T03:34:36.567Z,26.18
2016-12-25T03:35:36.265Z,26.37
2016-12-25T03:36:36.270Z,26.56
2016-12-25T03:37:37.296Z,26.56
2016-12-25T03:38:36.282Z,26.37
2016-12-25T03:39:36.337Z,26.37
2016-12-25T03:40:36.293Z,26.37
2016-12-25T03:41:36.303Z,26.26
2016-12-25T03:42:36.308Z,26.18
2016-12-25T03:43:36.362Z,26.26
2016-12-25T03:44:36.634Z,26.17
2016-12-25T03:45:36.639Z,26.46
2016-12-25T03:46:37.532Z,26.28
2016-12-25T03:47:36.703Z,26.56
2016-12-25T03:48:36.961Z,26.46
2016-12-25T03:49:36.358Z,26.56
2016-12-25T03:50:36.357Z,26.26
2016-12-25T03:51:36.365Z,26.17
2016-12-25T03:52:36.421Z,26.26
2016-12-25T03:53:36.737Z,26.28
2016-12-25T03:54:36.433Z,26.17
2016-12-25T03:55:36.878Z,26.28
2016-12-25T03:56:36.705Z,26.17
2016-12-25T03:57:36.790Z,26.45
2016-12-25T03:58:36.721Z,26.26
2016-12-25T03:59:36.518Z,26.35
2016-12-25T04:00:36.754Z,26.28
2016-12-25T04:01:36.457Z,26.26
2016-12-25T04:02:36.753Z,26.55
2016-12-25T04:03:36.446Z,26.45
2016-12-25T04:04:36.580Z,26.17
2016-12-25T04:05:36.827Z,26.37
2016-12-25T04:06:36.881Z,26.35
2016-12-25T04:07:36.811Z,26.26
2016-12-25T04:08:36.781Z,26.37
2016-12-25T04:09:36.837Z,26.26
2016-12-25T04:10:36.794Z,26.28
2016-12-25T04:11:36.810Z,26.35
2016-12-25T04:12:36.809Z,26.26
2016-12-25T04:13:36.676Z,26.45
2016-12-25T04:14:36.822Z,26.37
2016-12-25T04:15:36.826Z,26.46
2016-12-25T04:16:36.568Z,26.28
2016-12-25T04:17:36.838Z,26.37
2016-12-25T04:18:36.581Z,26.35
2016-12-25T04:19:36.539Z,26.17
2016-12-25T04:20:36.543Z,26.37
2016-12-25T04:21:36.915Z,26.37
2016-12-25T04:22:36.553Z,26.26
2016-12-25T04:23:36.925Z,26.46
2016-12-25T04:24:36.568Z,26.26
2016-12-25T04:25:36.971Z,26.37
2016-12-25T04:26:36.895Z,26.18
2016-12-25T04:27:36.910Z,26.26
2016-12-25T04:28:36.910Z,26.28
2016-12-25T04:29:36.917Z,26.28
2016-12-25T04:30:36.969Z,26.35
2016-12-25T04:31:36.612Z,26.26
2016-12-25T04:32:37.082Z,26.17
2016-12-25T04:33:36.938Z,26.45
2016-12-25T04:34:37.025Z,26.35
2016-12-25T04:35:36.637Z,26.45
2016-12-25T04:36:37.532Z,26.46
2016-12-25T04:37:36.963Z,26.35
2016-12-25T04:38:37.030Z,26.37
2016-12-25T04:39:36.662Z,26.18
2016-12-25T04:40:36.982Z,26.37
2016-12-25T04:41:36.765Z,26.45
2016-12-25T04:42:36.733Z,26.37
2016-12-25T04:43:37.798Z,26.37
2016-12-25T04:44:36.696Z,26.35
2016-12-25T04:45:37.730Z,26.37
2016-12-25T04:46:37.223Z,26.35
2016-12-25T04:47:37.194Z,26.46
2016-12-25T04:48:37.186Z,26.37
2016-12-25T04:49:37.111Z,26.37
2016-12-25T04:50:36.794Z,26.46
2016-12-25T04:51:37.100Z,26.46
2016-12-25T04:52:36.803Z,26.56
2016-12-25T04:53:37.214Z,26.28
2016-12-25T04:54:36.760Z,26.28
2016-12-25T04:55:36.868Z,26.45
2016-12-25T04:56:37.146Z,26.37
2016-12-25T04:57:37.184Z,26.28
2016-12-25T04:58:36.838Z,26.17
2016-12-25T04:59:37.121Z,26.26
2016-12-25T05:00:36.796Z,26.37
2016-12-25T05:01:37.131Z,26.55
2016-12-25T05:02:36.954Z,26.28
2016-12-25T05:03:36.816Z,26.37
2016-12-25T05:04:37.285Z,26.37
2016-12-25T05:05:37.144Z,26.37
2016-12-25T05:06:38.008Z,26.56
2016-12-25T05:07:37.212Z,26.46
2016-12-25T05:08:36.897Z,26.28
2016-12-25T05:09:37.190Z,26.46
2016-12-25T05:10:36.913Z,26.18
2016-12-25T05:11:37.511Z,26.26
2016-12-25T05:12:37.308Z,26.37
2016-12-25T05:13:38.214Z,26.35
2016-12-25T05:14:37.271Z,26.35
2016-12-25T05:15:37.204Z,26.28
2016-12-25T05:16:37.342Z,26.46
2016-12-25T05:17:37.334Z,26.18
2016-12-25T05:18:38.239Z,26.17
2016-12-25T05:19:37.238Z,26.37
2016-12-25T05:20:37.567Z,26.17
2016-12-25T05:21:36.929Z,26.17
2016-12-25T05:22:37.311Z,26.17
2016-12-25T05:23:37.591Z,26.17
2016-12-25T05:24:36.976Z,26.35
2016-12-25T05:25:37.421Z,26.45
2016-12-25T05:26:37.009Z,26.17
2016-12-25T05:27:37.159Z,26.17
2016-12-25T05:28:37.391Z,26.37
2016-12-25T05:29:37.032Z,26.37
2016-12-25T05:30:37.365Z,26.35
2016-12-25T05:31:37.379Z,26.45
2016-12-25T05:32:38.066Z,26.17
2016-12-25T05:33:37.374Z,26.35
2016-12-25T05:34:37.100Z,26.35
2016-12-25T05:35:37.429Z,26.35
2016-12-25T05:36:37.207Z,26.26
2016-12-25T05:37:37.446Z,26.17
2016-12-25T05:38:37.369Z,26.46
2016-12-25T05:39:37.574Z,26.17
2016-12-25T05:40:37.097Z,26.35
2016-12-25T05:41:37.418Z,26.55
2016-12-25T05:42:37.215Z,26.35
2016-12-25T05:43:37.115Z,26.17
2016-12-25T05:44:37.078Z,26.55
2016-12-25T05:45:37.078Z,26.17
2016-12-25T05:46:37.933Z,26.45
2016-12-25T05:47:37.137Z,26.45
2016-12-25T05:48:37.409Z,26.45
2016-12-25T05:49:37.186Z,26.26
2016-12-25T05:50:37.109Z,26.55
2016-12-25T05:51:37.543Z,26.26
2016-12-25T05:52:37.595Z,26.55
2016-12-25T05:53:37.589Z,26.26
2016-12-25T05:54:37.201Z,26.35
2016-12-25T05:55:37.556Z,26.45
2016-12-25T05:56:37.243Z,26.55
2016-12-25T05:57:37.472Z,26.46
2016-12-25T05:58:38.713Z,26.45
2016-12-25T05:59:37.624Z,26.45
2016-12-25T06:00:37.634Z,26.45
2016-12-25T06:01:37.215Z,26.45
2016-12-25T06:02:37.200Z,26.45
2016-12-25T06:03:37.191Z,26.45
2016-12-25T06:04:37.510Z,26.45
2016-12-25T06:05:37.549Z,26.45
2016-12-25T06:06:37.532Z,26.35
2016-12-25T06:07:37.654Z,26.45
2016-12-25T06:08:37.571Z,26.35
2016-12-25T06:09:37.727Z,26.35
2016-12-25T06:10:37.321Z,26.45
2016-12-25T06:11:37.270Z,26.45
2016-12-25T06:12:37.330Z,26.45
2016-12-25T06:13:37.697Z,26.45
2016-12-25T06:14:37.310Z,26.35
2016-12-25T06:15:37.327Z,26.55
2016-12-25T06:16:37.608Z,26.45
2016-12-25T06:17:37.665Z,26.45
2016-12-25T06:18:37.373Z,26.45
2016-12-25T06:19:37.677Z,26.45
2016-12-25T06:20:37.401Z,26.65
2016-12-25T06:21:37.723Z,26.65
2016-12-25T06:22:37.798Z,26.55
2016-12-25T06:23:37.320Z,26.65
2016-12-25T06:24:37.718Z,26.65
2016-12-25T06:25:37.642Z,26.45
2016-12-25T06:26:37.448Z,26.65
2016-12-25T06:27:37.723Z,26.65
2016-12-25T06:28:37.834Z,26.45
2016-12-25T06:29:37.373Z,26.45
2016-12-25T06:30:37.686Z,26.75
2016-12-25T06:31:37.790Z,26.55
2016-12-25T06:32:37.784Z,26.75
2016-12-25T06:33:37.864Z,26.45
2016-12-25T06:34:37.849Z,26.45
2016-12-25T06:35:37.826Z,26.46
2016-12-25T06:36:37.575Z,26.55
2016-12-25T06:37:37.895Z,26.65
2016-12-25T06:38:37.859Z,26.55
2016-12-25T06:39:37.848Z,26.55
2016-12-25T06:40:37.838Z,26.55
2016-12-25T06:41:37.749Z,26.28
2016-12-25T06:42:37.837Z,26.45
2016-12-25T06:43:37.872Z,26.55
2016-12-25T06:44:37.858Z,26.55
2016-12-25T06:45:37.946Z,26.55
2016-12-25T06:46:37.872Z,26.65
2016-12-25T06:47:37.852Z,26.55
2016-12-25T06:48:38.597Z,26.65
2016-12-25T06:49:37.866Z,27.13
2016-12-25T06:50:37.906Z,27.13
2016-12-25T06:51:37.855Z,27.03
2016-12-25T06:52:37.946Z,26.75
2016-12-25T06:53:39.042Z,26.75
2016-12-25T06:54:37.849Z,27.13
2016-12-25T06:55:37.865Z,26.93
2016-12-25T06:56:37.603Z,26.65
2016-12-25T06:57:37.672Z,26.75
2016-12-25T06:58:38.006Z,26.65
2016-12-25T06:59:37.999Z,26.65
2016-12-25T07:00:37.927Z,26.93
2016-12-25T07:01:37.866Z,26.75
2016-12-25T07:02:37.968Z,26.65
2016-12-25T07:03:37.959Z,26.84
2016-12-25T07:04:37.660Z,26.75
2016-12-25T07:05:37.953Z,26.75
2016-12-25T07:06:37.957Z,26.75
2016-12-25T07:07:37.719Z,26.65
2016-12-25T07:08:38.098Z,26.65
2016-12-25T07:09:37.690Z,26.65
2016-12-25T07:10:37.710Z,26.65
2016-12-25T07:11:38.055Z,26.65
2016-12-25T07:12:37.990Z,26.93
2016-12-25T07:13:37.628Z,26.65
2016-12-25T07:14:37.635Z,26.84
2016-12-25T07:15:37.945Z,26.65
2016-12-25T07:16:38.055Z,26.55
2016-12-25T07:17:37.703Z,26.75
2016-12-25T07:18:38.144Z,26.65
2016-12-25T07:19:38.132Z,26.75
2016-12-25T07:20:38.143Z,26.75
2016-12-25T07:21:38.064Z,26.55
2016-12-25T07:22:38.022Z,26.75
2016-12-25T07:23:38.160Z,26.75
2016-12-25T07:24:38.130Z,26.65
2016-12-25T07:25:38.718Z,26.75
2016-12-25T07:26:38.081Z,27.13
2016-12-25T07:27:38.153Z,26.75
2016-12-25T07:28:37.858Z,26.75
2016-12-25T07:29:38.144Z,27.13
2016-12-25T07:30:37.859Z,26.75
2016-12-25T07:31:38.430Z,26.75
2016-12-25T07:32:38.170Z,26.75
2016-12-25T07:33:38.262Z,26.65
2016-12-25T07:34:38.159Z,27.13
2016-12-25T07:35:37.889Z,26.75
2016-12-25T07:36:38.083Z,26.75
2016-12-25T07:37:38.272Z,26.93
2016-12-25T07:38:38.251Z,26.65
2016-12-25T07:39:38.218Z,26.65
2016-12-25T07:40:38.240Z,26.75
2016-12-25T07:41:38.193Z,26.75
2016-12-25T07:42:38.250Z,26.84
2016-12-25T07:43:38.224Z,26.75
2016-12-25T07:44:38.251Z,26.75
2016-12-25T07:45:38.282Z,26.75
2016-12-25T07:46:38.721Z,26.75
2016-12-25T07:47:37.913Z,26.84
2016-12-25T07:48:39.062Z,26.84
2016-12-25T07:49:38.250Z,26.84
2016-12-25T07:50:37.904Z,26.75
2016-12-25T07:51:37.940Z,26.84
2016-12-25T07:52:38.265Z,26.65
2016-12-25T07:53:38.293Z,26.75
2016-12-25T07:54:38.027Z,26.84
2016-12-25T07:55:38.296Z,26.75
2016-12-25T07:56:38.340Z,26.84
2016-12-25T07:57:38.285Z,26.65
2016-12-25T07:58:39.009Z,26.75
2016-12-25T07:59:38.092Z,26.75
2016-12-25T08:00:38.365Z,26.65
2016-12-25T08:01:38.310Z,26.75
2016-12-25T08:02:38.385Z,26.93
2016-12-25T08:03:37.937Z,26.75
2016-12-25T08:04:38.100Z,26.84
2016-12-25T08:05:38.365Z,26.84
2016-12-25T08:06:38.435Z,26.84
2016-12-25T08:07:38.013Z,26.84
2016-12-25T08:08:38.282Z,26.93
2016-12-25T08:09:38.306Z,26.84
2016-12-25T08:10:38.473Z,26.75
2016-12-25T08:11:38.450Z,26.65
2016-12-25T08:12:38.083Z,26.84
2016-12-25T08:13:38.314Z,26.84
2016-12-25T08:14:38.487Z,26.84
2016-12-25T08:15:38.063Z,26.75
2016-12-25T08:16:38.087Z,26.84
2016-12-25T08:17:38.402Z,26.84
2016-12-25T08:18:38.464Z,26.93
2016-12-25T08:19:38.451Z,26.65
2016-12-25T08:20:38.490Z,26.75
2016-12-25T08:21:38.124Z,26.93
2016-12-25T08:22:39.106Z,26.84
2016-12-25T08:23:38.433Z,26.84
2016-12-25T08:24:38.458Z,26.75
2016-12-25T08:25:38.597Z,26.75
2016-12-25T08:26:38.092Z,26.84
2016-12-25T08:27:38.473Z,26.84
2016-12-25T08:28:38.527Z,26.93
2016-12-25T08:29:38.502Z,26.84
2016-12-25T08:30:38.202Z,26.65
2016-12-25T08:31:38.236Z,26.84
2016-12-25T08:32:38.548Z,26.75
2016-12-25T08:33:38.516Z,26.55
2016-12-25T08:34:38.593Z,26.65
2016-12-25T08:35:38.866Z,26.93
2016-12-25T08:36:38.225Z,26.65
2016-12-25T08:37:38.201Z,26.75
2016-12-25T08:38:38.212Z,26.84
2016-12-25T08:39:38.607Z,26.93
2016-12-25T08:40:38.478Z,26.93
2016-12-25T08:41:38.171Z,26.84
2016-12-25T08:42:38.523Z,26.93
2016-12-25T08:43:38.240Z,26.65
2016-12-25T08:44:38.672Z,26.93
2016-12-25T08:45:38.634Z,26.93
2016-12-25T08:46:38.938Z,26.84
2016-12-25T08:47:38.631Z,26.84
2016-12-25T08:48:38.617Z,26.84
2016-12-25T08:49:38.394Z,26.84
2016-12-25T08:50:38.599Z,26.75
2016-12-25T08:51:38.726Z,26.75
2016-12-25T08:52:38.700Z,26.75
2016-12-25T08:53:38.606Z,26.93
2016-12-25T08:54:38.301Z,26.93
2016-12-25T08:55:38.767Z,26.93
2016-12-25T08:56:38.631Z,26.84
2016-12-25T08:57:38.351Z,26.93
2016-12-25T08:58:38.664Z,26.75
2016-12-25T08:59:39.415Z,26.84
2016-12-25T09:00:38.673Z,26.75
2016-12-25T09:01:38.734Z,26.93
2016-12-25T09:02:39.570Z,26.75
2016-12-25T09:03:38.371Z,26.84
2016-12-25T09:04:38.625Z,26.93
2016-12-25T09:05:39.766Z,26.93
2016-12-25T09:06:38.688Z,27.03
2016-12-25T09:07:38.716Z,26.93
2016-12-25T09:08:38.911Z,26.75
2016-12-25T09:09:38.660Z,27.03
2016-12-25T09:10:38.831Z,26.84
2016-12-25T09:11:38.412Z,27.03
2016-12-25T09:12:38.415Z,26.84
2016-12-25T09:13:38.437Z,26.93
2016-12-25T09:14:38.443Z,26.84
2016-12-25T09:15:38.472Z,26.84
2016-12-25T09:16:38.812Z,27.33
2016-12-25T09:17:38.705Z,26.93
2016-12-25T09:18:38.818Z,26.84
2016-12-25T09:19:38.450Z,26.65
2016-12-25T09:20:38.411Z,27.13
2016-12-25T09:21:38.799Z,27.23
2016-12-25T09:22:38.425Z,26.84
2016-12-25T09:23:38.511Z,26.84
2016-12-25T09:24:38.900Z,26.84
2016-12-25T09:25:39.181Z,26.84
2016-12-25T09:26:38.807Z,27.03
2016-12-25T09:27:38.916Z,26.75
2016-12-25T09:28:38.991Z,26.84
2016-12-25T09:29:38.902Z,26.84
2016-12-25T09:30:38.887Z,26.75
2016-12-25T09:31:38.800Z,26.84
2016-12-25T09:32:38.942Z,27.23
2016-12-25T09:33:38.870Z,27.03
2016-12-25T09:34:38.583Z,27.03
2016-12-25T09:35:38.876Z,27.23
2016-12-25T09:36:38.895Z,27.23
2016-12-25T09:37:38.833Z,27.33
2016-12-25T09:38:38.953Z,27.13
2016-12-25T09:39:38.929Z,27.33
2016-12-25T09:40:38.644Z,26.93
2016-12-25T09:41:38.544Z,27.13
2016-12-25T09:42:38.577Z,27.13
2016-12-25T09:43:38.944Z,27.51
2016-12-25T09:44:38.656Z,27.13
2016-12-25T09:45:38.989Z,27.03
2016-12-25T09:46:39.019Z,27.03
2016-12-25T09:47:38.700Z,26.93
2016-12-25T09:48:38.980Z,26.93
2016-12-25T09:49:39.738Z,27.23
2016-12-25T09:50:39.128Z,27.03
2016-12-25T09:51:39.059Z,27.03
2016-12-25T09:52:38.925Z,26.93
2016-12-25T09:53:39.041Z,26.93
2016-12-25T09:54:38.774Z,27.03
2016-12-25T09:55:38.744Z,26.93
2016-12-25T09:56:38.952Z,27.13
2016-12-25T09:57:39.142Z,27.51
2016-12-25T09:58:38.648Z,27.13
2016-12-25T09:59:39.145Z,27.33
2016-12-25T10:00:39.184Z,27.23
2016-12-25T10:01:39.067Z,27.03
2016-12-25T10:02:39.084Z,27.33
2016-12-25T10:03:39.117Z,27.42
2016-12-25T10:04:38.811Z,27.23
2016-12-25T10:05:39.044Z,27.23
2016-12-25T10:06:39.112Z,27.23
2016-12-25T10:07:38.800Z,27.42
2016-12-25T10:08:39.091Z,27.23
2016-12-25T10:09:38.878Z,27.13
2016-12-25T10:10:38.857Z,27.42
2016-12-25T10:11:39.168Z,27.23
2016-12-25T10:12:39.125Z,27.23
2016-12-25T10:13:39.137Z,27.23
2016-12-25T10:14:39.231Z,27.23
2016-12-25T10:15:38.855Z,27.03
2016-12-25T10:16:38.946Z,27.23
2016-12-25T10:17:39.093Z,27.23
2016-12-25T10:18:39.137Z,27.23
2016-12-25T10:19:39.182Z,27.23
2016-12-25T10:20:38.863Z,27.33
2016-12-25T10:21:39.154Z,27.13
2016-12-25T10:22:39.121Z,27.42
2016-12-25T10:23:39.303Z,27.23
2016-12-25T10:24:38.899Z,27.33
2016-12-25T10:25:39.205Z,27.23
2016-12-25T10:26:38.911Z,27.13
2016-12-25T10:27:38.877Z,27.33
2016-12-25T10:28:38.905Z,27.13
2016-12-25T10:29:38.994Z,27.42
2016-12-25T10:30:39.250Z,27.33
2016-12-25T10:31:39.245Z,27.13
2016-12-25T10:32:39.172Z,27.23
2016-12-25T10:33:39.206Z,27.13
2016-12-25T10:34:39.009Z,27.13
2016-12-25T10:35:39.287Z,27.13
2016-12-25T10:36:39.020Z,27.23
2016-12-25T10:37:39.203Z,27.23
2016-12-25T10:38:38.898Z,27.23
2016-12-25T10:39:39.318Z,27.23
2016-12-25T10:40:39.222Z,27.33
2016-12-25T10:41:38.916Z,27.23
2016-12-25T10:42:39.363Z,27.23
2016-12-25T10:43:38.926Z,27.13
2016-12-25T10:44:40.040Z,27.33
2016-12-25T10:45:39.147Z,27.23
2016-12-25T10:46:39.339Z,27.13
2016-12-25T10:47:39.264Z,27.13
2016-12-25T10:48:39.354Z,27.33
2016-12-25T10:49:39.276Z,27.13
2016-12-25T10:50:39.412Z,27.23
2016-12-25T10:51:39.423Z,27.23
2016-12-25T10:52:39.343Z,27.42
2016-12-25T10:53:39.328Z,27.33
2016-12-25T10:54:39.307Z,27.42
2016-12-25T10:55:39.073Z,27.42
2016-12-25T10:56:39.490Z,27.33
2016-12-25T10:57:39.141Z,27.51
2016-12-25T10:58:39.150Z,27.33
2016-12-25T10:59:39.080Z,27.71
2016-12-25T11:00:39.031Z,27.81
2016-12-25T11:01:39.554Z,27.51
2016-12-25T11:02:39.130Z,27.71
2016-12-25T11:03:39.103Z,27.61
2016-12-25T11:04:39.544Z,27.71
2016-12-25T11:05:39.064Z,27.61
2016-12-25T11:06:39.196Z,27.51
2016-12-25T11:07:39.075Z,27.61
2016-12-25T11:08:39.397Z,27.71
2016-12-25T11:09:39.405Z,27.51
2016-12-25T11:10:39.118Z,27.51
2016-12-25T11:11:39.523Z,27.61
2016-12-25T11:12:39.421Z,27.71
2016-12-25T11:13:39.163Z,27.71
2016-12-25T11:14:39.181Z,27.61
2016-12-25T11:15:39.483Z,27.51
2016-12-25T11:16:39.192Z,27.42
2016-12-25T11:17:39.578Z,27.61
2016-12-25T11:18:39.644Z,27.51
2016-12-25T11:19:39.464Z,27.61
2016-12-25T11:20:39.213Z,27.61
2016-12-25T11:21:39.490Z,27.61
2016-12-25T11:22:39.721Z,27.61
2016-12-25T11:23:39.495Z,27.61
2016-12-25T11:24:39.514Z,27.61
2016-12-25T11:25:39.588Z,27.61
2016-12-25T11:26:39.230Z,27.71
2016-12-25T11:27:39.201Z,27.51
2016-12-25T11:28:39.210Z,27.71
2016-12-25T11:29:39.612Z,27.61
2016-12-25T11:30:39.304Z,27.42
2016-12-25T11:31:39.538Z,27.51
2016-12-25T11:32:39.670Z,27.51
2016-12-25T11:33:39.344Z,27.51
2016-12-25T11:34:39.697Z,27.51
2016-12-25T11:35:39.777Z,27.51
2016-12-25T11:36:39.581Z,27.71
2016-12-25T11:37:39.729Z,27.51
2016-12-25T11:38:39.703Z,27.42
2016-12-25T11:39:39.587Z,27.51
2016-12-25T11:40:39.594Z,27.51
2016-12-25T11:41:39.287Z,27.51
2016-12-25T11:42:39.706Z,27.61
2016-12-25T11:43:39.613Z,27.61
2016-12-25T11:44:39.620Z,27.51
2016-12-25T11:45:39.364Z,27.61
2016-12-25T11:54:58.889Z,27.61
2016-12-25T11:55:58.893Z,27.51
2016-12-25T11:56:59.262Z,27.71
2016-12-25T11:57:59.166Z,26.93
2016-12-25T11:58:59.708Z,27.61
2016-12-25T11:59:59.230Z,27.71
2016-12-25T12:00:58.927Z,27.61
2016-12-25T12:01:59.242Z,27.61
2016-12-25T12:02:59.301Z,27.03
2016-12-25T12:03:59.204Z,27.71
2016-12-25T12:04:59.214Z,27.71
2016-12-25T12:05:59.217Z,27.71
2016-12-25T12:06:59.222Z,27.61
2016-12-25T12:07:58.919Z,27.61
2016-12-25T12:08:59.238Z,27.61
2016-12-25T12:09:59.242Z,27.61
2016-12-25T12:10:59.301Z,26.93
2016-12-25T12:11:59.255Z,27.61
2016-12-25T12:12:59.264Z,26.84
2016-12-25T12:13:59.317Z,27.6
2016-12-25T12:14:59.324Z,27.4
2016-12-25T12:15:59.329Z,27.6
2016-12-25T12:16:59.021Z,27.81
2016-12-25T12:17:59.027Z,27.61
2016-12-25T12:19:00.085Z,27.5
2016-12-25T12:19:59.302Z,27.61
2016-12-25T12:20:59.049Z,27.71
2016-12-25T12:21:59.058Z,27.71
2016-12-25T12:22:59.375Z,27.51
2016-12-25T12:23:59.379Z,26.92
2016-12-25T12:24:59.023Z,27.81
2016-12-25T12:25:59.391Z,27.03
2016-12-25T12:26:59.037Z,27.81
2016-12-25T12:27:59.352Z,27.61
2016-12-25T12:28:59.046Z,27.6
2016-12-25T12:29:59.655Z,27.51
2016-12-25T12:30:59.375Z,27.61
2016-12-25T12:31:59.064Z,27.6
2016-12-25T12:32:59.439Z,27.71
2016-12-25T12:33:59.388Z,27.61
2016-12-25T12:34:59.445Z,27.61
2016-12-25T12:35:59.090Z,27.5
2016-12-25T12:36:59.145Z,27.23
2016-12-25T12:37:59.467Z,27.81
2016-12-25T12:38:59.207Z,27.42
2016-12-25T12:39:59.113Z,28
2016-12-25T12:40:59.631Z,27.4
2016-12-25T12:41:59.487Z,27.6
2016-12-25T12:42:59.442Z,27.91
2016-12-25T12:43:59.450Z,27.42
2016-12-25T12:44:59.146Z,27.91
2016-12-25T12:45:59.150Z,27.89
2016-12-25T12:46:59.254Z,27.23
2016-12-25T12:47:59.161Z,27.42
2016-12-25T12:48:59.218Z,27.23
2016-12-25T12:50:00.287Z,27.23
2016-12-25T12:50:59.490Z,27.91
2016-12-25T12:51:59.599Z,27.89
2016-12-25T12:52:59.553Z,27.81
2016-12-25T12:53:59.559Z,27.8
2016-12-25T12:54:59.571Z,27.98
2016-12-25T12:55:59.522Z,27.91
2016-12-25T12:56:59.318Z,27.81
2016-12-25T12:57:59.270Z,27.23
2016-12-25T12:58:59.539Z,27.71
2016-12-25T12:59:59.548Z,27.42
2016-12-25T13:00:59.702Z,27.81
2016-12-25T13:01:59.295Z,27.33